Time;durP1;ratioP1;P1;durP2;ratioP2;P2;SDS_P1;SDS_P2;PMS_P1;PMS_P2;Temp;Humidity;BMP_temperature;BMP_pressure;BME280_temperature;BME280_humidity;BME280_pressure;Samples;Min_cycle;Max_cycle;Signal;HPM_P1;HPM_P2
2022/10/19 00:01:47;;;;;;;6.85;2.35;;;;;;;12.88;100.00;101197.38;4992233;28;20498;-78
2022/10/19 00:04:13;;;;;;;3.53;2.25;;;;;;;12.97;100.00;101217.06;5025619;28;20466;-80
2022/10/19 00:06:38;;;;;;;6.45;1.45;;;;;;;12.87;100.00;101205.66;5020029;28;20558;-76
2022/10/19 00:09:10;;;;;;;6.57;2.83;;;;;;;13.03;100.00;101221.75;5021851;28;20062;-77
2022/10/19 00:11:40;;;;;;;3.47;1.52;;;;;;;12.90;100.00;101200.75;5022816;28;20047;-78
2022/10/19 00:14:06;;;;;;;2.72;1.50;;;;;;;12.94;100.00;101215.56;5025588;28;20037;-78
2022/10/19 00:16:35;;;;;;;5.05;1.80;;;;;;;12.87;100.00;101205.66;5020737;28;20052;-76
2022/10/19 00:19:10;;;;;;;6.38;1.90;;;;;;;13.05;100.00;101213.47;5019016;28;20041;-76
2022/10/19 00:21:37;;;;;;;6.53;1.70;;;;;;;13.16;100.00;101208.47;5008677;28;20099;-76
2022/10/19 00:24:04;;;;;;;5.45;2.72;;;;;;;13.18;100.00;101213.69;4998315;28;20029;-76
2022/10/19 00:26:29;;;;;;;6.90;1.90;;;;;;;13.31;100.00;101207.69;5007409;28;20037;-76
2022/10/19 00:28:56;;;;;;;4.03;2.00;;;;;;;13.43;100.00;101200.00;5019592;28;20037;-76
2022/10/19 00:31:21;;;;;;;2.15;1.92;;;;;;;13.41;100.00;101203.69;5011780;28;20090;-76
2022/10/19 00:33:47;;;;;;;6.65;3.00;;;;;;;13.36;100.00;101186.38;5025639;28;20386;-76
2022/10/19 00:36:16;;;;;;;5.90;2.40;;;;;;;13.33;100.00;101190.28;4993654;28;20045;-77
2022/10/19 00:38:42;;;;;;;4.50;2.53;;;;;;;13.16;100.00;101186.03;5025863;28;20507;-79
2022/10/19 00:41:07;;;;;;;6.80;2.90;;;;;;;12.97;100.00;101184.69;5029916;28;20030;-78
2022/10/19 00:43:50;;;;;;;5.22;3.05;;;;;;;12.83;100.00;101164.69;5010988;28;20044;-78
2022/10/19 00:46:16;;;;;;;8.95;3.60;;;;;;;12.86;100.00;101193.19;5010013;28;20053;-80
2022/10/19 00:48:42;;;;;;;5.95;2.40;;;;;;;12.90;100.00;101186.41;5039773;28;20122;-79
2022/10/19 00:51:08;;;;;;;4.63;2.28;;;;;;;12.82;100.00;101173.00;4990738;28;20499;-79
2022/10/19 00:53:34;;;;;;;8.30;3.40;;;;;;;12.94;100.00;101176.94;5018694;28;20098;-79
2022/10/19 00:56:03;;;;;;;11.02;3.17;;;;;;;12.98;100.00;101180.94;5014397;28;20033;-79
2022/10/19 00:58:29;;;;;;;3.33;2.55;;;;;;;12.75;100.00;101135.94;5014131;28;20510;-77
2022/10/19 01:00:54;;;;;;;7.68;2.92;;;;;;;13.02;100.00;101187.69;5020838;28;20029;-79
2022/10/19 01:03:20;;;;;;;7.30;3.08;;;;;;;12.90;100.00;101183.72;5017874;28;20041;-78
2022/10/19 01:05:46;;;;;;;4.90;2.88;;;;;;;12.89;100.00;101182.06;5017736;28;20064;-78
2022/10/19 01:08:12;;;;;;;9.43;3.90;;;;;;;12.74;100.00;101182.81;4997764;28;21163;-78
2022/10/19 01:10:48;;;;;;;8.23;2.72;;;;;;;12.75;100.00;101172.84;5020839;28;20067;-78
2022/10/19 01:13:51;;;;;;;11.23;3.15;;;;;;;12.64;100.00;101173.28;4982350;28;20045;-78
2022/10/19 01:16:32;;;;;;;4.10;2.75;;;;;;;12.48;100.00;101158.88;5040342;28;20103;-78
2022/10/19 01:19:15;;;;;;;11.27;3.28;;;;;;;12.54;100.00;101168.09;5003809;28;20647;-79
2022/10/19 01:21:45;;;;;;;7.07;3.60;;;;;;;12.57;100.00;101158.81;5019632;28;20036;-78
2022/10/19 01:24:26;;;;;;;6.47;2.17;;;;;;;12.63;100.00;101153.56;5012111;28;20091;-77
2022/10/19 01:27:10;;;;;;;7.40;2.63;;;;;;;12.65;100.00;101148.81;5006645;28;20072;-78
2022/10/19 01:30:10;;;;;;;5.03;3.00;;;;;;;12.68;100.00;101142.25;5010379;28;20425;-78
2022/10/19 01:32:44;;;;;;;7.65;2.80;;;;;;;12.70;100.00;101143.72;5018066;28;20041;-78
2022/10/19 01:35:17;;;;;;;6.25;2.13;;;;;;;12.69;100.00;101139.34;5023791;28;20025;-77
2022/10/19 01:37:48;;;;;;;4.90;2.97;;;;;;;12.69;100.00;101143.91;5024821;28;20029;-78
2022/10/19 01:40:29;;;;;;;8.48;3.08;;;;;;;12.69;100.00;101117.75;5004170;28;20060;-77
2022/10/19 01:43:02;;;;;;;8.32;3.30;;;;;;;12.72;100.00;101136.28;5020127;28;20041;-77
2022/10/19 01:45:37;;;;;;;9.65;3.85;;;;;;;12.79;100.00;101132.88;4983909;28;20042;-77
2022/10/19 01:48:14;;;;;;;7.15;2.90;;;;;;;12.81;100.00;101136.22;4995726;28;20423;-77
2022/10/19 01:50:46;;;;;;;2.25;1.85;;;;;;;12.89;100.00;101133.47;5021438;28;20029;-78
2022/10/19 01:53:13;;;;;;;4.85;2.63;;;;;;;12.92;100.00;101138.50;5002202;28;20034;-78
2022/10/19 01:55:41;;;;;;;8.32;2.38;;;;;;;12.88;100.00;101131.78;4985004;28;20048;-78
2022/10/19 01:58:09;;;;;;;4.78;3.22;;;;;;;12.85;100.00;101129.44;5028182;28;20040;-77
2022/10/19 02:00:38;;;;;;;7.50;2.90;;;;;;;12.77;100.00;101130.34;5007971;28;20045;-78
2022/10/19 02:03:04;;;;;;;4.50;3.08;;;;;;;12.70;100.00;101127.53;5006127;28;20396;-78
2022/10/19 02:05:32;;;;;;;7.35;3.03;;;;;;;12.70;100.00;101115.88;5001948;28;20075;-78
2022/10/19 02:08:05;;;;;;;3.70;2.05;;;;;;;12.75;100.00;101098.16;5008026;28;20040;-77
2022/10/19 02:10:32;;;;;;;4.53;2.50;;;;;;;12.79;100.00;101081.59;5027469;28;20065;-77
2022/10/19 02:12:59;;;;;;;6.95;3.08;;;;;;;12.81;100.00;101087.63;4993305;28;20488;-77
2022/10/19 02:15:26;;;;;;;7.13;2.80;;;;;;;12.87;100.00;101065.34;4992069;28;20064;-78
2022/10/19 02:17:58;;;;;;;6.47;4.00;;;;;;;12.96;100.00;101035.34;4995021;28;20426;-77
2022/10/19 02:20:25;;;;;;;9.07;4.07;;;;;;;12.97;100.00;101028.97;5010115;28;20283;-78
2022/10/19 02:22:50;;;;;;;6.18;3.38;;;;;;;12.93;100.00;101051.94;5008611;28;20033;-77
2022/10/19 02:25:16;;;;;;;2.63;2.05;;;;;;;12.85;100.00;101061.97;5023227;28;20029;-77
2022/10/19 02:27:42;;;;;;;8.38;3.58;;;;;;;12.61;100.00;101061.16;5024220;28;20080;-78
2022/10/19 02:30:10;;;;;;;6.07;3.67;;;;;;;12.51;100.00;101065.97;5020231;28;20026;-78
2022/10/19 02:32:35;;;;;;;5.72;2.63;;;;;;;12.46;100.00;101049.50;5010271;28;20507;-79
2022/10/19 02:35:01;;;;;;;7.50;2.97;;;;;;;12.40;100.00;101048.34;4991427;28;20038;-78
2022/10/19 02:37:27;;;;;;;5.22;2.67;;;;;;;12.38;100.00;101049.56;5023131;28;20216;-78
2022/10/19 02:39:53;;;;;;;8.35;3.97;;;;;;;12.41;100.00;101030.31;5024960;28;20056;-78
2022/10/19 02:42:33;;;;;;;5.30;3.25;;;;;;;12.43;100.00;101039.91;4992237;28;20029;-78
2022/10/19 02:45:08;;;;;;;6.22;3.63;;;;;;;12.40;100.00;101050.22;5007356;28;20045;-77
2022/10/19 02:47:41;;;;;;;5.18;3.13;;;;;;;12.41;100.00;101044.66;5005811;28;20040;-77
2022/10/19 02:50:12;;;;;;;7.80;3.92;;;;;;;12.45;100.00;101020.84;5010821;28;20034;-77
2022/10/19 02:52:39;;;;;;;8.23;3.90;;;;;;;12.47;100.00;101022.34;5004850;28;20712;-77
2022/10/19 02:55:07;;;;;;;7.30;3.47;;;;;;;12.31;100.00;100968.56;5018053;28;20044;-77
2022/10/19 02:57:32;;;;;;;7.43;3.80;;;;;;;12.50;100.00;101004.97;4992200;28;20092;-78
2022/10/19 02:59:58;;;;;;;8.27;4.22;;;;;;;12.53;100.00;101015.38;5023887;28;20483;-78
2022/10/19 03:02:24;;;;;;;12.10;4.18;;;;;;;12.55;100.00;101013.34;5006827;28;20483;-77
2022/10/19 03:04:50;;;;;;;11.38;4.47;;;;;;;12.60;100.00;101010.13;4989080;28;20025;-78
2022/10/19 03:07:18;;;;;;;7.90;3.50;;;;;;;12.62;100.00;101011.63;5018362;28;20055;-79
2022/10/19 03:09:44;;;;;;;9.02;4.18;;;;;;;12.67;100.00;101013.75;5048228;28;20116;-78
2022/10/19 03:12:13;;;;;;;5.63;3.03;;;;;;;12.69;100.00;101001.75;5027782;28;20475;-78
2022/10/19 03:14:39;;;;;;;15.45;5.03;;;;;;;12.72;100.00;100984.34;4988699;28;20033;-80
2022/10/19 03:17:12;;;;;;;7.88;4.30;;;;;;;12.70;100.00;100976.47;5002118;28;20653;-78
2022/10/19 03:19:38;;;;;;;12.88;5.18;;;;;;;12.73;100.00;100978.78;5024362;28;20395;-79
2022/10/19 03:22:04;;;;;;;7.38;3.70;;;;;;;12.81;100.00;100974.31;5012158;28;20115;-78
2022/10/19 03:24:30;;;;;;;10.00;4.85;;;;;;;12.80;100.00;100972.63;5010648;28;20069;-78
2022/10/19 03:26:56;;;;;;;6.85;3.20;;;;;;;12.69;100.00;100937.00;5008763;28;20392;-78
2022/10/19 03:29:21;;;;;;;8.02;4.38;;;;;;;12.82;100.00;100954.41;5028240;28;20041;-78
2022/10/19 03:31:48;;;;;;;5.97;3.90;;;;;;;12.77;100.00;100953.09;5002777;28;20387;-80
2022/10/19 03:34:14;;;;;;;9.20;4.28;;;;;;;12.79;100.00;100970.97;5009136;28;20052;-78
2022/10/19 03:36:40;;;;;;;7.72;5.00;;;;;;;12.78;100.00;100962.03;5023939;28;20456;-78
2022/10/19 03:39:09;;;;;;;9.50;5.00;;;;;;;12.83;100.00;100973.09;5009254;28;20065;-78
2022/10/19 03:41:36;;;;;;;9.85;4.90;;;;;;;12.85;100.00;100978.31;5022063;28;20116;-78
2022/10/19 03:44:02;;;;;;;5.28;3.90;;;;;;;12.87;100.00;100976.28;5025247;28;20037;-78
2022/10/19 03:46:28;;;;;;;9.48;5.18;;;;;;;12.86;100.00;100961.94;5048615;28;20040;-77
2022/10/19 03:48:54;;;;;;;9.85;4.85;;;;;;;12.92;100.00;100971.16;5009639;28;20037;-78
2022/10/19 03:51:22;;;;;;;10.38;5.05;;;;;;;12.97;100.00;100976.84;5028645;28;20036;-78
2022/10/19 03:53:51;;;;;;;9.00;4.85;;;;;;;13.04;100.00;100972.34;5013387;28;20030;-78
2022/10/19 03:56:20;;;;;;;10.35;5.30;;;;;;;12.99;100.00;100958.56;5028416;28;20034;-79
2022/10/19 03:58:47;;;;;;;8.80;4.32;;;;;;;12.99;100.00;100961.28;5003755;28;20032;-78
2022/10/19 04:01:15;;;;;;;7.07;4.22;;;;;;;13.07;100.00;100968.44;5025383;28;20056;-77
2022/10/19 04:03:41;;;;;;;7.90;4.53;;;;;;;13.06;100.00;100961.38;5025512;28;20491;-78
2022/10/19 04:06:17;;;;;;;10.70;5.32;;;;;;;13.13;100.00;100956.91;5013311;28;20034;-79
2022/10/19 04:08:43;;;;;;;12.73;4.78;;;;;;;13.16;100.00;100972.72;5006569;28;20033;-78
2022/10/19 04:11:14;;;;;;;8.23;4.30;;;;;;;13.17;100.00;100974.41;4987409;28;20402;-79
2022/10/19 04:13:40;;;;;;;7.60;4.25;;;;;;;13.19;100.00;100966.97;5023293;28;20029;-79
2022/10/19 04:16:06;;;;;;;8.82;4.45;;;;;;;13.19;100.00;100953.44;4991461;28;20040;-79
2022/10/19 04:18:32;;;;;;;7.10;3.85;;;;;;;13.19;100.00;100948.06;5020240;28;20032;-80
2022/10/19 04:20:59;;;;;;;9.02;3.97;;;;;;;13.25;100.00;100968.06;5029022;28;20033;-78
2022/10/19 04:23:29;;;;;;;8.98;4.28;;;;;;;13.27;100.00;100963.34;5008099;28;20048;-78
2022/10/19 04:26:03;;;;;;;4.85;2.78;;;;;;;13.30;100.00;100938.66;5024272;28;20394;-78
2022/10/19 04:28:29;;;;;;;3.63;2.75;;;;;;;13.32;100.00;100932.03;5003885;28;20029;-77
2022/10/19 04:30:55;;;;;;;5.10;2.88;;;;;;;13.33;100.00;100947.22;5021447;28;20048;-78
2022/10/19 04:33:22;;;;;;;8.75;3.40;;;;;;;13.35;100.00;100947.03;5011048;28;20030;-78
2022/10/19 04:35:48;;;;;;;2.55;1.83;;;;;;;13.32;100.00;100947.41;5010850;28;20120;-78
2022/10/19 04:38:16;;;;;;;5.47;3.35;;;;;;;13.23;100.00;100940.41;5015071;28;20076;-79
2022/10/19 04:40:41;;;;;;;4.28;3.30;;;;;;;12.99;100.00;100918.09;5024178;28;20022;-78
2022/10/19 04:43:07;;;;;;;5.93;3.22;;;;;;;13.12;100.00;100939.03;5011544;28;20030;-79
2022/10/19 04:45:34;;;;;;;7.85;4.30;;;;;;;13.08;100.00;100952.06;4990260;28;20033;-78
2022/10/19 04:48:00;;;;;;;8.13;3.90;;;;;;;13.00;100.00;100938.69;5026082;28;20033;-77
2022/10/19 04:50:25;;;;;;;6.18;3.58;;;;;;;13.02;100.00;100960.94;5024334;28;20033;-77
2022/10/19 04:52:51;;;;;;;5.45;3.80;;;;;;;13.01;100.00;100969.19;5005685;28;22189;-78
2022/10/19 04:55:16;;;;;;;6.85;3.70;;;;;;;12.97;100.00;100957.94;5012492;28;20060;-78
2022/10/19 04:57:42;;;;;;;5.95;3.70;;;;;;;12.98;100.00;100963.13;5009717;28;20114;-78
2022/10/19 05:00:08;;;;;;;9.57;4.38;;;;;;;12.95;100.00;100960.81;5028903;28;20392;-78
2022/10/19 05:02:34;;;;;;;10.65;4.00;;;;;;;12.98;100.00;100956.91;5025854;28;20030;-79
2022/10/19 05:05:00;;;;;;;4.78;3.33;;;;;;;12.96;100.00;100945.47;5010505;28;20022;-78
2022/10/19 05:07:25;;;;;;;5.75;3.38;;;;;;;12.97;100.00;100957.94;5009515;28;20080;-77
2022/10/19 05:09:51;;;;;;;5.28;3.15;;;;;;;13.03;100.00;100975.25;5007842;28;20033;-78
2022/10/19 05:12:16;;;;;;;4.55;2.90;;;;;;;13.07;100.00;100987.34;4985076;28;20049;-79
2022/10/19 05:14:42;;;;;;;4.45;2.95;;;;;;;13.08;100.00;100973.66;5026609;28;20502;-77
2022/10/19 05:17:08;;;;;;;3.33;2.30;;;;;;;13.15;100.00;100949.44;4994382;28;20029;-77
2022/10/19 05:19:35;;;;;;;4.03;2.15;;;;;;;13.21;100.00;100932.50;5001041;28;20044;-77
2022/10/19 05:22:01;;;;;;;3.22;2.00;;;;;;;13.34;100.00;100954.31;5017263;28;20044;-78
2022/10/19 05:24:27;;;;;;;3.97;2.17;;;;;;;13.32;100.00;100940.16;5008111;28;20403;-77
2022/10/19 05:26:52;;;;;;;4.00;2.22;;;;;;;13.33;100.00;100932.88;4994787;28;20135;-77
2022/10/19 05:29:18;;;;;;;3.88;1.90;;;;;;;13.29;100.00;100945.09;5027967;28;20472;-78
2022/10/19 05:31:43;;;;;;;4.78;2.05;;;;;;;13.35;100.00;100938.94;5009761;28;20483;-78
2022/10/19 05:34:09;;;;;;;2.60;1.70;;;;;;;13.31;100.00;100943.88;5024357;28;20107;-77
2022/10/19 05:36:37;;;;;;;5.75;2.58;;;;;;;13.25;100.00;100951.84;5026116;28;20029;-77
2022/10/19 05:39:06;;;;;;;4.18;2.10;;;;;;;13.20;100.00;100952.41;5026380;28;20582;-77
2022/10/19 05:41:31;;;;;;;1.85;1.50;;;;;;;13.13;100.00;100946.94;5008664;28;20372;-77
2022/10/19 05:43:58;;;;;;;3.75;1.75;;;;;;;13.07;100.00;100920.72;5005802;28;20510;-78
2022/10/19 05:46:26;;;;;;;3.20;2.17;;;;;;;13.08;100.00;100932.34;5023163;28;20437;-78
2022/10/19 05:48:51;;;;;;;3.28;1.48;;;;;;;12.98;100.00;100901.06;5018850;28;20034;-78
2022/10/19 05:51:19;;;;;;;2.92;1.58;;;;;;;12.90;100.00;100903.03;5023646;28;20411;-79
2022/10/19 05:53:45;;;;;;;2.90;1.60;;;;;;;12.88;100.00;100903.22;5024141;28;20232;-79
2022/10/19 05:56:16;;;;;;;3.78;1.95;;;;;;;12.83;100.00;100908.31;5008912;28;20034;-77
2022/10/19 05:58:42;;;;;;;4.72;3.17;;;;;;;12.80;100.00;100907.88;5023011;28;20033;-77
2022/10/19 06:01:08;;;;;;;3.03;2.00;;;;;;;12.80;100.00;100907.88;5029771;28;20033;-77
2022/10/19 06:03:34;;;;;;;2.55;2.03;;;;;;;12.76;100.00;100894.75;5023897;28;20044;-77
2022/10/19 06:06:04;;;;;;;3.30;2.03;;;;;;;12.69;100.00;100896.53;5023378;28;20407;-77
2022/10/19 06:08:30;;;;;;;3.80;1.80;;;;;;;12.68;100.00;100904.81;5020116;28;20118;-79
2022/10/19 06:11:16;;;;;;;2.78;1.90;;;;;;;12.66;100.00;100896.91;5011049;28;20037;-77
2022/10/19 06:13:43;;;;;;;2.08;1.48;;;;;;;12.67;100.00;100898.56;5009059;28;20083;-78
2022/10/19 06:16:10;;;;;;;3.72;1.80;;;;;;;12.72;100.00;100900.72;5016724;28;20041;-78
2022/10/19 06:18:36;;;;;;;2.33;1.52;;;;;;;12.62;100.00;100873.16;5011805;28;20033;-79
2022/10/19 06:21:15;;;;;;;4.95;2.17;;;;;;;12.80;100.00;100907.88;5036499;28;20561;-78
2022/10/19 06:23:41;;;;;;;5.30;2.45;;;;;;;12.80;100.00;100889.81;5004184;28;20455;-78
2022/10/19 06:26:09;;;;;;;3.33;1.77;;;;;;;12.82;100.00;100862.66;5024862;28;20068;-78
2022/10/19 06:28:35;;;;;;;3.08;1.60;;;;;;;12.77;100.00;100853.25;4987044;28;20034;-78
2022/10/19 06:31:01;;;;;;;5.75;2.25;;;;;;;12.81;100.00;100859.13;5019589;28;20041;-78
2022/10/19 06:33:28;;;;;;;6.18;2.70;;;;;;;12.81;100.00;100796.22;5005878;28;20056;-79
2022/10/19 06:35:54;;;;;;;4.38;2.00;;;;;;;12.83;100.00;100862.44;5015199;28;20044;-79
2022/10/19 06:38:20;;;;;;;3.22;1.73;;;;;;;12.83;100.00;100845.44;5008177;28;20366;-79
2022/10/19 06:40:47;;;;;;;3.45;2.30;;;;;;;12.86;100.00;100862.09;5005532;28;20026;-78
2022/10/19 06:43:13;;;;;;;4.53;1.75;;;;;;;12.84;100.00;100844.44;5007448;28;20048;-78
2022/10/19 06:45:39;;;;;;;2.92;1.83;;;;;;;12.86;100.00;100842.34;5024619;28;20048;-78
2022/10/19 06:48:06;;;;;;;4.20;1.80;;;;;;;12.89;100.00;100842.00;5008106;28;20387;-78
2022/10/19 06:50:31;;;;;;;6.18;2.10;;;;;;;12.66;100.00;100813.28;5019629;28;20033;-78
2022/10/19 06:52:58;;;;;;;4.18;2.00;;;;;;;12.89;100.00;100840.13;5004627;28;20038;-78
2022/10/19 06:55:24;;;;;;;4.68;1.67;;;;;;;12.91;100.00;100829.13;5034190;28;20061;-79
2022/10/19 06:57:52;;;;;;;2.80;1.77;;;;;;;12.91;100.00;100835.38;5020648;28;22647;-78
2022/10/19 07:00:18;;;;;;;3.58;1.85;;;;;;;12.92;100.00;100830.81;5016008;28;20053;-79
2022/10/19 07:02:43;;;;;;;3.60;2.00;;;;;;;12.92;100.00;100841.63;5004443;28;20068;-78
2022/10/19 07:05:09;;;;;;;1.90;1.50;;;;;;;12.90;100.00;100849.06;5009196;28;20065;-78
2022/10/19 07:07:35;;;;;;;2.75;1.58;;;;;;;12.88;100.00;100833.03;5006112;28;20033;-78
2022/10/19 07:10:01;;;;;;;3.88;1.38;;;;;;;12.87;100.00;100823.28;4991735;28;20025;-78
2022/10/19 07:12:27;;;;;;;3.45;1.70;;;;;;;12.80;100.00;100816.13;5014486;28;20039;-77
2022/10/19 07:14:54;;;;;;;4.43;2.47;;;;;;;12.74;100.00;100798.84;5009966;28;20037;-78
2022/10/19 07:17:20;;;;;;;4.78;1.70;;;;;;;12.61;100.00;100793.28;5015473;28;20108;-78
2022/10/19 07:19:46;;;;;;;3.28;1.85;;;;;;;12.52;100.00;100781.78;5035620;28;20147;-78
2022/10/19 07:22:16;;;;;;;4.63;1.85;;;;;;;12.47;100.00;100770.72;5005581;28;20045;-79
2022/10/19 07:24:42;;;;;;;2.72;1.60;;;;;;;12.41;100.00;100747.16;5020963;28;20488;-78
2022/10/19 07:27:07;;;;;;;3.78;2.13;;;;;;;12.37;100.00;100740.50;5012184;28;20110;-77
2022/10/19 07:29:33;;;;;;;3.00;1.92;;;;;;;12.29;100.00;100715.31;5020861;28;20055;-78
2022/10/19 07:31:58;;;;;;;4.10;2.20;;;;;;;12.25;100.00;100705.06;5009678;28;20516;-78
2022/10/19 07:34:24;;;;;;;3.10;2.40;;;;;;;12.19;100.00;100700.44;5023546;28;20068;-78
2022/10/19 07:36:51;;;;;;;3.72;1.98;;;;;;;12.34;100.00;100712.06;5007165;28;20040;-78
2022/10/19 07:39:17;;;;;;;2.38;1.40;;;;;;;12.36;100.00;100707.31;5023210;28;20056;-79
2022/10/19 07:41:43;;;;;;;5.25;2.50;;;;;;;12.38;100.00;100712.50;4988358;28;20435;-78
2022/10/19 07:44:09;;;;;;;2.90;1.75;;;;;;;12.42;100.00;100740.78;5020434;28;20440;-78
2022/10/19 07:46:38;;;;;;;6.63;2.50;;;;;;;12.46;100.00;100751.00;5027279;28;20037;-77
2022/10/19 07:49:08;;;;;;;4.07;2.30;;;;;;;12.49;100.00;100757.84;5026281;28;20029;-78
2022/10/19 07:51:35;;;;;;;3.70;2.30;;;;;;;12.48;100.00;100750.78;5021750;28;20111;-80
2022/10/19 07:54:01;;;;;;;5.65;2.45;;;;;;;12.54;100.00;100763.50;5027446;28;20037;-79
2022/10/19 07:56:27;;;;;;;6.35;2.50;;;;;;;12.54;100.00;100764.38;5024287;28;20449;-77
2022/10/19 07:58:55;;;;;;;5.07;2.35;;;;;;;12.59;100.00;100776.44;4990245;28;20487;-79
2022/10/19 08:01:32;;;;;;;3.67;2.17;;;;;;;12.59;100.00;100787.22;5007250;28;20029;-79
2022/10/19 08:03:58;;;;;;;3.85;2.72;;;;;;;12.66;100.00;100799.78;4992487;28;20037;-79
2022/10/19 08:06:24;;;;;;;6.20;3.05;;;;;;;12.69;100.00;100801.28;5014998;28;20033;-78
2022/10/19 08:08:51;;;;;;;5.35;3.00;;;;;;;12.73;100.00;100787.22;4995852;28;20151;-77
2022/10/19 08:11:22;;;;;;;4.28;3.17;;;;;;;12.74;100.00;100793.44;5021902;28;20040;-78
2022/10/19 08:13:48;;;;;;;4.45;2.28;;;;;;;12.81;100.00;100798.91;5002979;28;20029;-77
2022/10/19 08:16:22;;;;;;;6.40;3.10;;;;;;;12.80;100.00;100799.94;5022558;28;20380;-80
2022/10/19 08:18:48;;;;;;;6.28;3.25;;;;;;;12.91;100.00;100813.81;5000639;28;20033;-77
2022/10/19 08:21:14;;;;;;;8.63;3.58;;;;;;;13.11;100.00;100807.78;5027110;28;20087;-77
2022/10/19 08:23:40;;;;;;;12.13;4.03;;;;;;;13.48;100.00;100805.91;4999452;28;20127;-79
2022/10/19 08:26:06;;;;;;;6.97;2.83;;;;;;;13.69;100.00;100797.75;4992655;28;20098;-80
2022/10/19 08:28:32;;;;;;;6.50;3.15;;;;;;;13.83;100.00;100817.63;5003260;28;20120;-79
2022/10/19 08:30:57;;;;;;;5.90;2.90;;;;;;;13.81;100.00;100817.84;5005413;28;20433;-79
2022/10/19 08:33:25;;;;;;;4.63;2.88;;;;;;;13.86;100.00;100833.44;5008284;28;20727;-81
2022/10/19 08:35:52;;;;;;;5.05;3.13;;;;;;;14.50;100.00;100827.84;5027978;28;21663;-84
2022/10/19 08:38:19;;;;;;;5.30;2.70;;;;;;;15.61;100.00;100815.91;5029834;28;20533;-82
2022/10/19 08:40:45;;;;;;;3.85;2.95;;;;;;;17.17;100.00;100838.78;5012202;28;20075;-83
2022/10/19 08:43:14;;;;;;;5.60;2.80;;;;;;;17.71;100.00;100831.97;5013405;28;20115;-82
2022/10/19 08:46:07;;;;;;;3.38;2.47;;;;;;;16.90;100.00;100833.47;5032480;28;20494;-82
2022/10/19 08:48:36;;;;;;;4.43;2.25;;;;;;;15.60;100.00;100820.50;4996911;28;20530;-84
2022/10/19 08:51:04;;;;;;;3.20;2.08;;;;;;;14.87;100.00;100822.22;5027608;28;20025;-82
2022/10/19 08:53:41;;;;;;;6.75;2.30;;;;;;;14.83;100.00;100819.09;5001033;28;20045;-82
2022/10/19 08:56:29;;;;;;;6.07;1.92;;;;;;;14.83;100.00;100837.19;5010316;28;20045;-83
2022/10/19 08:58:57;;;;;;;2.72;1.70;;;;;;;14.60;100.00;100837.50;5005806;28;20080;-83
2022/10/19 09:01:40;;;;;;;3.92;1.92;;;;;;;14.57;100.00;100819.78;5014609;28;20037;-82
2022/10/19 09:04:18;;;;;;;3.40;2.05;;;;;;;14.62;100.00;100819.19;4997831;28;20068;-82
2022/10/19 09:07:03;;;;;;;3.53;1.90;;;;;;;14.56;100.00;100823.53;5008587;28;20032;-82
2022/10/19 09:09:30;;;;;;;3.00;2.00;;;;;;;14.49;100.00;100807.22;5030921;28;20037;-82
2022/10/19 09:12:02;;;;;;;2.97;1.60;;;;;;;14.48;100.00;100800.16;4993179;28;20034;-82
2022/10/19 09:15:05;;;;;;;2.38;1.60;;;;;;;14.62;100.00;100811.09;5024042;28;20026;-82
2022/10/19 09:17:31;;;;;;;3.33;1.92;;;;;;;14.80;100.00;100805.97;4991000;28;20133;-82
2022/10/19 09:20:01;;;;;;;4.22;1.80;;;;;;;14.84;100.00;100795.53;4997067;28;20037;-83
2022/10/19 09:22:34;;;;;;;2.72;1.88;;;;;;;15.13;100.00;100778.13;5012855;28;20038;-83
2022/10/19 09:25:11;;;;;;;2.92;2.35;;;;;;;15.60;100.00;100798.00;4998581;28;20504;-83
2022/10/19 09:27:39;;;;;;;3.22;2.35;;;;;;;16.65;100.00;100798.06;5014250;28;20120;-83
2022/10/19 09:30:25;;;;;;;6.05;3.35;;;;;;;16.92;100.00;100796.09;5014697;28;20471;-83
2022/10/19 09:32:58;;;;;;;4.03;1.80;;;;;;;16.34;100.00;100787.94;4996727;28;20499;-83
2022/10/19 09:35:28;;;;;;;2.80;2.10;;;;;;;16.26;100.00;100784.38;4997235;28;20053;-83
2022/10/19 09:37:55;;;;;;;3.80;2.28;;;;;;;16.15;100.00;100785.06;5029800;28;20497;-83
2022/10/19 09:40:24;;;;;;;2.97;2.10;;;;;;;16.21;100.00;100778.78;5031076;28;20033;-82
2022/10/19 09:42:56;;;;;;;3.83;2.50;;;;;;;16.04;100.00;100797.38;5026745;28;20084;-85
2022/10/19 09:45:35;;;;;;;3.00;2.08;;;;;;;15.89;100.00;100804.91;5023199;28;20113;-85
2022/10/19 09:48:19;;;;;;;7.00;3.10;;;;;;;15.50;100.00;100803.81;4974554;28;20153;-86
2022/10/19 09:50:53;;;;;;;4.50;2.33;;;;;;;15.18;100.00;100791.91;5021704;28;20022;-84
2022/10/19 09:53:20;;;;;;;4.30;2.42;;;;;;;15.13;100.00;100807.91;4997199;28;20204;-85
2022/10/19 09:56:09;;;;;;;6.68;3.13;;;;;;;14.98;100.00;100816.22;5027249;28;20037;-85
2022/10/19 09:58:34;;;;;;;3.20;2.15;;;;;;;14.88;100.00;100813.06;5024260;28;20044;-85
2022/10/19 10:01:01;;;;;;;3.55;2.55;;;;;;;14.68;100.00;100799.44;5026395;28;20025;-85
2022/10/19 10:03:31;;;;;;;4.00;2.63;;;;;;;14.64;100.00;100803.59;5009353;28;20041;-85
2022/10/19 10:06:07;;;;;;;3.42;2.58;;;;;;;14.71;100.00;100799.03;4995518;28;20387;-86
2022/10/19 10:08:36;;;;;;;4.53;3.05;;;;;;;14.63;100.00;100799.22;5011382;28;20077;-86
2022/10/19 10:11:12;;;;;;;4.65;2.83;;;;;;;14.64;100.00;100798.19;5011455;28;20033;-86
2022/10/19 10:13:43;;;;;;;6.00;2.92;;;;;;;14.76;100.00;100793.84;5012016;28;20056;-87
2022/10/19 10:16:12;;;;;;;7.80;2.67;;;;;;;14.99;100.00;100776.44;5023836;28;20116;-86
2022/10/19 10:18:59;;;;;;;7.38;3.45;;;;;;;15.69;100.00;100777.81;4995201;28;20132;-87
2022/10/19 10:21:30;;;;;;;6.57;4.00;;;;;;;16.65;100.00;100770.91;5011895;28;20730;-86
2022/10/19 10:24:04;;;;;;;3.92;2.40;;;;;;;16.58;100.00;100778.25;5025628;28;20035;-86
2022/10/19 10:26:30;;;;;;;3.60;3.17;;;;;;;16.67;100.00;100779.66;5015024;28;20071;-86
2022/10/19 10:28:56;;;;;;;7.40;3.45;;;;;;;16.43;100.00;100778.50;4993310;28;20029;-86
2022/10/19 10:31:27;;;;;;;7.05;4.35;;;;;;;15.99;100.00;100769.22;4995966;28;20037;-85
2022/10/19 10:34:00;;;;;;;5.78;3.97;;;;;;;15.71;100.00;100772.16;5013909;28;20479;-89
2022/10/19 10:36:28;;;;;;;4.72;3.60;;;;;;;15.61;100.00;100759.00;5006748;28;20049;-88
2022/10/19 10:39:04;;;;;;;6.78;3.92;;;;;;;15.52;100.00;100762.97;5014344;28;20109;-86
2022/10/19 10:41:36;;;;;;;7.72;3.95;;;;;;;15.25;100.00;100768.38;5033003;28;20031;-85
2022/10/19 10:44:06;;;;;;;7.60;4.07;;;;;;;15.01;100.00;100764.38;4991974;28;20052;-87
2022/10/19 10:46:34;;;;;;;8.88;4.40;;;;;;;14.66;100.00;100774.44;5006411;28;20049;-86
2022/10/19 10:49:04;;;;;;;7.85;4.30;;;;;;;14.43;100.00;100777.47;5026566;28;20037;-87
2022/10/19 10:51:37;;;;;;;6.43;3.80;;;;;;;14.42;100.00;100779.34;4997445;28;20052;-86
2022/10/19 10:54:19;;;;;;;5.63;4.55;;;;;;;14.35;100.00;100775.75;5012580;28;20530;-87
2022/10/19 10:57:15;;;;;;;8.18;4.80;;;;;;;14.32;100.00;100789.69;5005604;28;20080;-87
2022/10/19 11:00:02;;;;;;;7.75;4.97;;;;;;;14.32;100.00;100797.78;4977691;28;20045;-87
2022/10/19 11:02:35;;;;;;;8.20;5.47;;;;;;;14.25;100.00;100795.03;5028772;28;20506;-85
2022/10/19 11:05:05;;;;;;;9.30;5.15;;;;;;;14.03;100.00;100771.81;4992164;28;20041;-86
2022/10/19 11:07:32;;;;;;;7.30;5.22;;;;;;;14.09;100.00;100789.94;5010589;28;20392;-85
2022/10/19 11:10:08;;;;;;;8.73;3.97;;;;;;;14.06;100.00;100790.34;4996027;28;20043;-86
2022/10/19 11:13:04;;;;;;;7.40;5.60;;;;;;;14.04;100.00;100768.06;5027270;28;20498;-87
2022/10/19 11:15:50;;;;;;;6.50;4.45;;;;;;;14.02;100.00;100778.25;4991180;28;20128;-88
2022/10/19 11:18:21;;;;;;;9.18;4.95;;;;;;;13.97;100.00;100764.47;4995147;28;20041;-86
2022/10/19 11:21:22;;;;;;;10.10;4.88;;;;;;;14.06;100.00;100745.22;4991426;28;20116;-85
2022/10/19 11:24:26;;;;;;;8.77;4.47;;;;;;;14.04;100.00;100749.97;4966559;28;20049;-86
2022/10/19 11:27:10;;;;;;;9.70;4.75;;;;;;;13.94;100.00;100727.03;4990417;28;20038;-86
2022/10/19 11:29:44;;;;;;;4.97;4.18;;;;;;;14.03;100.00;100721.28;5025735;28;20119;-85